sensor_id;sensor_type;location;lat;lon;timestamp;pressure;altitude;pressure_sealevel;temperature;humidity
43691;BME280;29293;52.190;21.226;2022-12-07T00:09:09;99664.40;;;0.37;100.00
43691;BME280;29293;52.190;21.226;2022-12-07T00:24:17;99651.52;;;0.36;100.00
43691;BME280;29293;52.190;21.226;2022-12-07T00:39:24;99642.77;;;0.34;100.00
43691;BME280;29293;52.190;21.226;2022-12-07T00:54:32;99638.80;;;0.32;100.00
43691;BME280;29293;52.190;21.226;2022-12-07T01:09:39;99643.94;;;0.33;100.00
43691;BME280;29293;52.190;21.226;2022-12-07T01:24:46;99635.77;;;0.39;100.00
43691;BME280;29293;52.190;21.226;2022-12-07T01:39:54;99625.46;;;0.43;100.00
43691;BME280;29293;52.190;21.226;2022-12-07T01:55:03;99618.06;;;0.51;100.00
43691;BME280;29293;52.190;21.226;2022-12-07T02:10:16;99604.56;;;0.59;100.00
43691;BME280;29293;52.190;21.226;2022-12-07T02:25:36;99593.76;;;0.66;100.00
43691;BME280;29293;52.190;21.226;2022-12-07T02:40:51;99582.16;;;0.75;100.00
43691;BME280;29293;52.190;21.226;2022-12-07T02:56:03;99579.45;;;0.83;100.00
43691;BME280;29293;52.190;21.226;2022-12-07T03:11:15;99570.90;;;0.92;100.00
43691;BME280;29293;52.190;21.226;2022-12-07T03:26:32;99562.26;;;0.97;100.00
43691;BME280;29293;52.190;21.226;2022-12-07T03:41:41;99562.91;;;1.00;100.00
43691;BME280;29293;52.190;21.226;2022-12-07T03:56:49;99553.77;;;0.98;100.00
43691;BME280;29293;52.190;21.226;2022-12-07T04:11:57;99547.70;;;0.92;100.00
43691;BME280;29293;52.190;21.226;2022-12-07T04:27:05;99543.67;;;0.83;100.00
43691;BME280;29293;52.190;21.226;2022-12-07T04:42:13;99541.39;;;0.81;100.00
43691;BME280;29293;52.190;21.226;2022-12-07T04:57:20;99532.36;;;0.74;100.00
43691;BME280;29293;52.190;21.226;2022-12-07T05:12:28;99522.16;;;0.62;100.00
43691;BME280;29293;52.190;21.226;2022-12-07T05:27:35;99516.70;;;0.49;100.00
43691;BME280;29293;52.190;21.226;2022-12-07T05:42:45;99511.64;;;0.38;100.00
43691;BME280;29293;52.190;21.226;2022-12-07T05:57:55;99520.56;;;0.30;100.00
43691;BME280;29293;52.190;21.226;2022-12-07T06:13:20;99527.34;;;0.17;100.00
43691;BME280;29293;52.190;21.226;2022-12-07T06:28:28;99523.05;;;0.05;100.00
43691;BME280;29293;52.190;21.226;2022-12-07T06:43:35;99518.87;;;-0.03;100.00
43691;BME280;29293;52.190;21.226;2022-12-07T06:58:44;99515.74;;;-0.10;100.00
43691;BME280;29293;52.190;21.226;2022-12-07T07:13:51;99515.70;;;-0.16;100.00
43691;BME280;29293;52.190;21.226;2022-12-07T07:28:59;99517.92;;;-0.17;100.00
43691;BME280;29293;52.190;21.226;2022-12-07T07:44:07;99513.52;;;-0.19;100.00
43691;BME280;29293;52.190;21.226;2022-12-07T07:59:14;99519.48;;;-0.21;100.00
43691;BME280;29293;52.190;21.226;2022-12-07T08:14:21;99521.02;;;-0.22;100.00
43691;BME280;29293;52.190;21.226;2022-12-07T08:29:28;99522.98;;;-0.16;100.00
43691;BME280;29293;52.190;21.226;2022-12-07T08:44:36;99529.64;;;-0.06;100.00
43691;BME280;29293;52.190;21.226;2022-12-07T08:59:43;99530.06;;;0.04;100.00
43691;BME280;29293;52.190;21.226;2022-12-07T09:14:50;99520.98;;;0.14;100.00
43691;BME280;29293;52.190;21.226;2022-12-07T09:29:57;99509.55;;;0.35;100.00
43691;BME280;29293;52.190;21.226;2022-12-07T09:45:07;99500.51;;;0.68;100.00
43691;BME280;29293;52.190;21.226;2022-12-07T10:00:18;99495.64;;;0.93;100.00
43691;BME280;29293;52.190;21.226;2022-12-07T10:15:43;99493.06;;;1.11;100.00
43691;BME280;29293;52.190;21.226;2022-12-07T10:30:59;99480.84;;;1.29;100.00
43691;BME280;29293;52.190;21.226;2022-12-07T10:46:32;99477.52;;;1.43;100.00
43691;BME280;29293;52.190;21.226;2022-12-07T11:01:48;99478.10;;;1.51;100.00
43691;BME280;29293;52.190;21.226;2022-12-07T11:17:01;99476.80;;;1.49;100.00
43691;BME280;29293;52.190;21.226;2022-12-07T11:32:19;99480.99;;;1.52;100.00
43691;BME280;29293;52.190;21.226;2022-12-07T11:47:36;99473.73;;;1.50;100.00
43691;BME280;29293;52.190;21.226;2022-12-07T12:02:51;99464.73;;;1.51;100.00
43691;BME280;29293;52.190;21.226;2022-12-07T12:18:21;99459.96;;;1.56;100.00
43691;BME280;29293;52.190;21.226;2022-12-07T12:33:34;99444.59;;;1.66;100.00
43691;BME280;29293;52.190;21.226;2022-12-07T12:48:43;99437.15;;;1.54;100.00
43691;BME280;29293;52.190;21.226;2022-12-07T13:03:56;99438.27;;;1.44;100.00
43691;BME280;29293;52.190;21.226;2022-12-07T13:19:21;99431.64;;;1.32;100.00
43691;BME280;29293;52.190;21.226;2022-12-07T13:34:36;99428.91;;;1.25;100.00
43691;BME280;29293;52.190;21.226;2022-12-07T13:49:50;99429.27;;;1.23;100.00
43691;BME280;29293;52.190;21.226;2022-12-07T14:05:12;99436.22;;;1.21;100.00
43691;BME280;29293;52.190;21.226;2022-12-07T14:20:37;99434.09;;;1.18;100.00
43691;BME280;29293;52.190;21.226;2022-12-07T14:35:44;99432.76;;;1.06;100.00
43691;BME280;29293;52.190;21.226;2022-12-07T14:50:54;99435.96;;;0.95;100.00
43691;BME280;29293;52.190;21.226;2022-12-07T15:06:04;99441.14;;;0.83;100.00
43691;BME280;29293;52.190;21.226;2022-12-07T15:21:14;99440.02;;;0.67;100.00
43691;BME280;29293;52.190;21.226;2022-12-07T15:36:25;99425.71;;;0.41;100.00
43691;BME280;29293;52.190;21.226;2022-12-07T15:51:32;99426.17;;;0.28;100.00
43691;BME280;29293;52.190;21.226;2022-12-07T16:06:40;99428.48;;;0.20;100.00
43691;BME280;29293;52.190;21.226;2022-12-07T16:21:48;99420.74;;;0.19;100.00
43691;BME280;29293;52.190;21.226;2022-12-07T16:36:55;99415.88;;;0.24;100.00
43691;BME280;29293;52.190;21.226;2022-12-07T16:52:03;99413.61;;;0.27;100.00
43691;BME280;29293;52.190;21.226;2022-12-07T17:07:10;99409.48;;;0.21;100.00
43691;BME280;29293;52.190;21.226;2022-12-07T17:22:18;99400.20;;;0.12;100.00
43691;BME280;29293;52.190;21.226;2022-12-07T17:37:28;99399.61;;;0.18;100.00
43691;BME280;29293;52.190;21.226;2022-12-07T17:52:40;99398.98;;;0.24;100.00
43691;BME280;29293;52.190;21.226;2022-12-07T18:08:10;99399.24;;;0.25;100.00
43691;BME280;29293;52.190;21.226;2022-12-07T18:23:17;99397.21;;;0.32;100.00
43691;BME280;29293;52.190;21.226;2022-12-07T18:38:31;99396.34;;;0.36;100.00
43691;BME280;29293;52.190;21.226;2022-12-07T18:53:39;99391.63;;;0.40;100.00
43691;BME280;29293;52.190;21.226;2022-12-07T19:08:47;99403.67;;;0.51;100.00
43691;BME280;29293;52.190;21.226;2022-12-07T19:23:54;99415.66;;;0.61;100.00
43691;BME280;29293;52.190;21.226;2022-12-07T19:39:02;99431.96;;;0.65;100.00
43691;BME280;29293;52.190;21.226;2022-12-07T19:54:11;99444.52;;;0.66;100.00
43691;BME280;29293;52.190;21.226;2022-12-07T20:09:21;99462.36;;;0.60;100.00
43691;BME280;29293;52.190;21.226;2022-12-07T20:24:28;99487.09;;;0.46;100.00
43691;BME280;29293;52.190;21.226;2022-12-07T20:39:35;99501.42;;;0.16;100.00
43691;BME280;29293;52.190;21.226;2022-12-07T20:54:43;99529.71;;;-0.16;100.00
43691;BME280;29293;52.190;21.226;2022-12-07T21:09:50;99545.34;;;-0.28;100.00
43691;BME280;29293;52.190;21.226;2022-12-07T21:24:57;99557.05;;;-0.34;100.00
43691;BME280;29293;52.190;21.226;2022-12-07T21:40:06;99565.95;;;-0.39;100.00
43691;BME280;29293;52.190;21.226;2022-12-07T21:55:14;99568.61;;;-0.67;100.00
43691;BME280;29293;52.190;21.226;2022-12-07T22:10:21;99567.98;;;-0.77;100.00
43691;BME280;29293;52.190;21.226;2022-12-07T22:25:35;99566.33;;;-0.76;100.00
43691;BME280;29293;52.190;21.226;2022-12-07T22:40:44;99569.75;;;-0.70;100.00
43691;BME280;29293;52.190;21.226;2022-12-07T22:55:52;99579.00;;;-0.57;100.00
43691;BME280;29293;52.190;21.226;2022-12-07T23:10:59;99577.46;;;-0.47;100.00
43691;BME280;29293;52.190;21.226;2022-12-07T23:26:09;99581.66;;;-0.46;100.00
43691;BME280;29293;52.190;21.226;2022-12-07T23:41:18;99593.83;;;-0.47;100.00
43691;BME280;29293;52.190;21.226;2022-12-07T23:56:27;99595.80;;;-0.50;100.00
